createdAt,value
2023-01-21T00:02:20.564Z,18.85
2023-01-21T00:04:48.608Z,21.08
2023-01-21T00:07:16.884Z,23.48
2023-01-21T00:09:45.197Z,20.13
2023-01-21T00:12:15.814Z,22.02
2023-01-21T00:14:43.873Z,20.00
2023-01-21T00:17:13.933Z,18.67
2023-01-21T00:19:42.427Z,17.27
2023-01-21T00:22:10.677Z,17.35
2023-01-21T00:24:39.135Z,16.92
2023-01-21T00:27:07.450Z,21.75
2023-01-21T00:29:37.073Z,20.33
2023-01-21T00:32:05.749Z,20.90
2023-01-21T00:34:34.130Z,25.13
2023-01-21T00:37:02.343Z,18.10
2023-01-21T00:39:30.548Z,20.17
2023-01-21T00:41:58.905Z,19.80
2023-01-21T00:44:27.149Z,19.10
2023-01-21T00:46:56.726Z,16.92
2023-01-21T00:49:24.935Z,18.15
2023-01-21T00:51:55.811Z,19.80
2023-01-21T00:54:24.204Z,19.05
2023-01-21T00:56:52.838Z,20.35
2023-01-21T00:59:23.991Z,18.75
2023-01-21T01:01:53.159Z,18.20
2023-01-21T01:04:24.497Z,14.80
2023-01-21T01:06:55.317Z,15.25
2023-01-21T01:09:29.868Z,14.75
2023-01-21T01:12:03.947Z,15.80
2023-01-21T01:14:36.823Z,18.83
2023-01-21T01:17:05.211Z,15.70
2023-01-21T01:19:35.123Z,16.42
2023-01-21T01:22:03.450Z,13.27
2023-01-21T01:24:33.037Z,16.80
2023-01-21T01:27:01.915Z,12.68
2023-01-21T01:29:30.607Z,14.18
2023-01-21T01:31:59.293Z,16.63
2023-01-21T01:34:27.851Z,15.13
2023-01-21T01:36:57.628Z,13.57
2023-01-21T01:39:26.599Z,14.65
2023-01-21T01:41:55.857Z,12.57
2023-01-21T01:44:56.195Z,16.20
2023-01-21T01:47:28.474Z,16.20
2023-01-21T01:49:58.003Z,17.13
2023-01-21T01:52:29.158Z,14.52
2023-01-21T01:55:01.884Z,22.75
2023-01-21T01:57:35.985Z,15.07
2023-01-21T02:00:06.804Z,20.73
2023-01-21T02:02:37.079Z,16.70
2023-01-21T02:05:08.443Z,20.52
2023-01-21T02:07:41.156Z,20.98
2023-01-21T02:10:12.427Z,14.77
2023-01-21T02:12:44.340Z,16.73
2023-01-21T02:15:13.421Z,11.32
2023-01-21T02:17:55.060Z,15.15
2023-01-21T02:21:19.252Z,19.00
2023-01-21T02:24:12.856Z,15.50
2023-01-21T02:27:07.743Z,18.85
2023-01-21T02:29:57.863Z,14.07
2023-01-21T02:33:00.082Z,17.08
2023-01-21T02:35:36.508Z,13.93
2023-01-21T02:38:13.412Z,21.42
2023-01-21T02:40:53.586Z,20.10
2023-01-21T02:43:30.719Z,16.45
2023-01-21T02:46:07.758Z,20.27
2023-01-21T02:48:43.012Z,23.05
2023-01-21T02:51:13.561Z,19.67
2023-01-21T02:53:41.498Z,18.92
2023-01-21T02:56:13.505Z,21.33
2023-01-21T02:58:45.222Z,27.73
2023-01-21T03:01:23.258Z,26.42
2023-01-21T03:04:27.141Z,24.30
2023-01-21T03:07:07.861Z,23.67
2023-01-21T03:09:37.499Z,26.45
2023-01-21T03:12:25.536Z,26.05
2023-01-21T03:15:18.870Z,25.52
2023-01-21T03:17:53.640Z,24.00
2023-01-21T03:20:26.029Z,23.33
2023-01-21T03:23:02.398Z,24.70
2023-01-21T03:25:33.356Z,28.80
2023-01-21T03:28:06.679Z,30.08
2023-01-21T03:30:43.299Z,27.05
2023-01-21T03:33:14.870Z,26.92
2023-01-21T03:35:47.379Z,26.58
2023-01-21T03:38:22.797Z,24.73
2023-01-21T03:40:57.250Z,23.35
2023-01-21T03:43:25.393Z,25.55
2023-01-21T03:46:03.318Z,27.10
2023-01-21T03:48:41.328Z,24.02
2023-01-21T03:51:12.983Z,28.52
2023-01-21T03:53:43.018Z,27.55
2023-01-21T03:56:10.932Z,26.83
2023-01-21T03:58:38.951Z,25.88
2023-01-21T04:01:06.981Z,28.27
2023-01-21T04:03:35.213Z,25.60
2023-01-21T04:06:04.187Z,21.10
2023-01-21T04:08:32.114Z,31.90
2023-01-21T04:11:01.547Z,31.58
2023-01-21T04:13:29.700Z,29.67
2023-01-21T04:15:57.659Z,27.83
2023-01-21T04:18:25.710Z,36.30
2023-01-21T04:20:53.647Z,27.30
2023-01-21T04:23:23.560Z,33.40
2023-01-21T04:25:54.778Z,28.77
2023-01-21T04:28:24.158Z,31.02
2023-01-21T04:30:52.155Z,31.45
2023-01-21T04:33:20.194Z,24.30
2023-01-21T04:35:48.086Z,33.53
2023-01-21T04:38:17.350Z,24.85
2023-01-21T04:40:45.323Z,29.02
2023-01-21T04:43:15.144Z,29.00
2023-01-21T04:45:45.889Z,33.40
2023-01-21T04:48:13.837Z,35.40
2023-01-21T04:50:41.819Z,29.00
2023-01-21T04:53:09.736Z,31.83
2023-01-21T04:55:37.626Z,37.03
2023-01-21T04:58:05.565Z,32.25
2023-01-21T05:00:33.538Z,30.35
2023-01-21T05:03:02.821Z,25.65
2023-01-21T05:05:30.771Z,34.45
2023-01-21T05:07:58.726Z,28.17
2023-01-21T05:10:28.380Z,26.80
2023-01-21T05:12:59.464Z,29.95
2023-01-21T05:15:27.446Z,25.92
2023-01-21T05:17:55.403Z,29.50
2023-01-21T05:20:25.068Z,30.83
2023-01-21T05:22:57.907Z,31.27
2023-01-21T05:25:25.888Z,25.63
2023-01-21T05:27:58.942Z,31.67
2023-01-21T05:30:26.927Z,29.27
2023-01-21T05:32:57.628Z,33.55
2023-01-21T05:35:27.129Z,29.10
2023-01-21T05:37:55.186Z,27.77
2023-01-21T05:40:26.122Z,27.63
2023-01-21T05:42:54.422Z,23.45
2023-01-21T05:45:22.476Z,29.60
2023-01-21T05:47:50.763Z,28.58
2023-01-21T05:50:19.369Z,29.80
2023-01-21T05:52:49.022Z,27.17
2023-01-21T05:55:17.245Z,25.73
2023-01-21T05:57:45.429Z,25.27
2023-01-21T06:00:14.938Z,23.35
2023-01-21T06:02:43.358Z,20.95
2023-01-21T06:05:13.609Z,22.58
2023-01-21T06:07:41.716Z,22.17
2023-01-21T06:10:12.552Z,23.85
2023-01-21T06:12:43.565Z,23.23
2023-01-21T06:15:13.997Z,23.58
2023-01-21T06:17:42.144Z,26.40
2023-01-21T06:20:11.712Z,22.77
2023-01-21T06:22:39.903Z,29.23
2023-01-21T06:25:08.694Z,26.98
2023-01-21T06:27:38.918Z,23.17
2023-01-21T06:30:08.549Z,20.73
2023-01-21T06:32:37.644Z,15.27
2023-01-21T06:35:06.727Z,18.02
2023-01-21T06:37:34.931Z,21.33
2023-01-21T06:40:03.189Z,20.35
2023-01-21T06:42:31.431Z,21.20
2023-01-21T06:45:03.875Z,23.90
2023-01-21T06:49:59.896Z,21.05
2023-01-21T06:52:28.138Z,22.40
2023-01-21T06:54:56.388Z,26.65
2023-01-21T06:57:25.020Z,37.97
2023-01-21T06:59:53.347Z,29.77
2023-01-21T07:02:22.975Z,30.23
2023-01-21T07:04:51.416Z,27.55
2023-01-21T07:07:19.833Z,28.50
2023-01-21T07:09:48.181Z,27.40
2023-01-21T07:12:16.345Z,30.40
2023-01-21T07:14:44.555Z,36.78
2023-01-21T07:17:12.896Z,32.90
2023-01-21T07:19:43.173Z,37.28
2023-01-21T07:22:11.498Z,32.95
2023-01-21T07:24:39.784Z,36.20
2023-01-21T07:27:08.051Z,34.63
2023-01-21T07:29:36.271Z,40.08
2023-01-21T07:32:07.501Z,34.47
2023-01-21T07:37:37.033Z,27.77
2023-01-21T07:40:08.211Z,38.92
2023-01-21T07:42:36.609Z,30.88
2023-01-21T07:45:05.888Z,33.42
2023-01-21T07:47:34.223Z,35.83
2023-01-21T07:50:05.082Z,33.28
2023-01-21T07:52:34.782Z,40.10
2023-01-21T07:55:03.112Z,35.00
2023-01-21T07:57:31.785Z,43.15
2023-01-21T08:00:02.016Z,34.95
2023-01-21T08:02:30.220Z,43.22
2023-01-21T08:04:58.309Z,47.47
2023-01-21T08:07:26.321Z,44.17
2023-01-21T08:09:58.688Z,40.88
2023-01-21T08:14:55.806Z,35.83
2023-01-21T08:17:24.366Z,36.70
2023-01-21T08:19:52.374Z,40.20
2023-01-21T08:22:20.835Z,34.22
2023-01-21T08:24:49.128Z,39.92
2023-01-21T08:27:18.993Z,38.47
2023-01-21T08:29:48.629Z,40.42
2023-01-21T08:32:17.266Z,43.00
2023-01-21T08:34:48.762Z,33.88
2023-01-21T08:37:17.171Z,26.80
2023-01-21T08:39:45.665Z,46.10
2023-01-21T08:42:17.711Z,46.88
2023-01-21T08:44:50.994Z,36.42
2023-01-21T08:47:19.311Z,38.38
2023-01-21T08:49:47.568Z,44.95
2023-01-21T08:52:17.208Z,52.70
2023-01-21T08:54:48.208Z,46.10
2023-01-21T08:57:17.908Z,39.13
2023-01-21T08:59:47.547Z,40.67
2023-01-21T09:02:15.700Z,35.47
2023-01-21T09:04:43.828Z,38.85
2023-01-21T09:07:12.033Z,38.95
2023-01-21T09:09:40.123Z,35.38
2023-01-21T09:12:08.600Z,44.88
2023-01-21T09:14:41.488Z,25.05
2023-01-21T09:17:22.512Z,33.60
2023-01-21T09:19:50.773Z,32.53
2023-01-21T09:22:21.726Z,42.30
2023-01-21T09:24:51.689Z,38.88
2023-01-21T09:27:21.030Z,37.95
2023-01-21T09:29:49.024Z,40.83
2023-01-21T09:32:18.416Z,38.92
2023-01-21T09:34:46.376Z,41.28
2023-01-21T09:37:14.237Z,38.53
2023-01-21T09:39:45.294Z,48.65
2023-01-21T09:42:18.829Z,36.90
2023-01-21T09:44:52.345Z,50.30
2023-01-21T09:47:27.282Z,44.78
2023-01-21T09:49:56.960Z,47.55
2023-01-21T09:52:30.759Z,43.30
2023-01-21T09:54:59.626Z,46.97
2023-01-21T09:58:04.076Z,40.65
2023-01-21T10:00:36.625Z,45.28
2023-01-21T10:03:16.219Z,53.63
2023-01-21T10:06:16.502Z,47.33
2023-01-21T10:09:01.966Z,48.40
2023-01-21T10:11:46.277Z,40.83
2023-01-21T10:14:31.362Z,37.45
2023-01-21T10:17:07.960Z,40.58
2023-01-21T10:19:48.410Z,40.20
2023-01-21T10:22:21.306Z,36.25
2023-01-21T10:24:52.276Z,31.27
2023-01-21T10:27:22.643Z,38.45
2023-01-21T10:29:54.516Z,42.45
2023-01-21T10:32:25.710Z,41.92
2023-01-21T10:34:56.729Z,36.83
2023-01-21T10:37:33.723Z,39.40
2023-01-21T10:40:06.939Z,39.42
2023-01-21T10:42:53.404Z,35.10
2023-01-21T10:45:32.333Z,31.70
2023-01-21T10:48:07.115Z,30.00
2023-01-21T10:50:44.224Z,37.15
2023-01-21T10:53:22.074Z,33.60
2023-01-21T10:56:09.880Z,35.15
2023-01-21T10:58:43.918Z,27.52
2023-01-21T11:01:22.012Z,38.80
2023-01-21T11:03:53.123Z,35.63
2023-01-21T11:06:25.103Z,37.85
2023-01-21T11:08:58.423Z,31.13
2023-01-21T11:11:28.945Z,36.17
2023-01-21T11:13:57.298Z,32.53
2023-01-21T11:16:46.675Z,31.45
2023-01-21T11:19:26.821Z,34.67
2023-01-21T11:22:02.707Z,27.63
2023-01-21T11:24:32.614Z,35.42
2023-01-21T11:27:01.843Z,38.58
2023-01-21T11:29:42.431Z,34.75
2023-01-21T11:32:19.305Z,36.58
2023-01-21T11:34:52.009Z,30.25
2023-01-21T11:37:27.158Z,43.45
2023-01-21T11:39:57.817Z,29.20
2023-01-21T11:42:26.712Z,34.65
2023-01-21T11:44:56.597Z,26.95
2023-01-21T11:47:30.921Z,29.63
2023-01-21T11:50:10.674Z,30.73
2023-01-21T11:52:41.659Z,29.00
2023-01-21T11:55:22.201Z,32.30
2023-01-21T11:57:53.425Z,31.83
2023-01-21T12:00:23.604Z,29.95
2023-01-21T12:02:54.924Z,31.52
2023-01-21T12:05:30.540Z,30.02
2023-01-21T12:08:00.377Z,38.55
2023-01-21T12:10:35.652Z,37.35
2023-01-21T12:13:21.548Z,32.60
2023-01-21T12:16:23.388Z,32.13
2023-01-21T12:19:29.081Z,36.90
2023-01-21T12:22:19.391Z,28.45
2023-01-21T12:25:18.112Z,29.38
2023-01-21T12:28:01.103Z,27.48
2023-01-21T12:30:40.081Z,29.90
2023-01-21T12:33:16.848Z,27.27
2023-01-21T12:35:48.819Z,25.92
2023-01-21T12:38:20.458Z,38.20
2023-01-21T12:40:57.385Z,30.63
2023-01-21T12:43:31.464Z,30.30
2023-01-21T12:46:06.279Z,27.92
2023-01-21T12:48:40.548Z,32.75
2023-01-21T12:51:12.315Z,28.30
2023-01-21T12:53:47.462Z,29.02
2023-01-21T12:56:24.113Z,30.85
2023-01-21T12:58:56.289Z,28.65
2023-01-21T13:01:41.023Z,29.48
2023-01-21T13:04:30.160Z,26.45
2023-01-21T13:07:03.726Z,25.88
2023-01-21T13:09:39.077Z,32.30
2023-01-21T13:12:16.457Z,32.85
2023-01-21T13:14:48.491Z,32.47
2023-01-21T13:17:20.918Z,28.45
2023-01-21T13:19:49.371Z,29.95
2023-01-21T13:22:29.918Z,37.17
2023-01-21T13:25:06.312Z,35.13
2023-01-21T13:27:45.520Z,30.50
2023-01-21T13:30:24.742Z,21.58
2023-01-21T13:32:59.752Z,28.00
2023-01-21T13:35:38.232Z,32.65
2023-01-21T13:38:17.191Z,31.15
2023-01-21T13:40:54.811Z,28.80
2023-01-21T13:43:54.499Z,29.88
2023-01-21T13:46:49.663Z,29.05
2023-01-21T13:49:45.690Z,31.13
2023-01-21T13:52:18.438Z,27.10
2023-01-21T13:55:07.714Z,35.55
2023-01-21T13:58:03.034Z,30.77
2023-01-21T14:00:38.169Z,26.48
2023-01-21T14:03:13.583Z,26.70
2023-01-21T14:05:45.698Z,27.27
2023-01-21T14:08:20.639Z,29.30
2023-01-21T14:10:54.101Z,25.35
2023-01-21T14:14:00.695Z,27.95
2023-01-21T14:16:52.576Z,24.85
2023-01-21T14:19:39.328Z,25.93
2023-01-21T14:22:24.422Z,29.88
2023-01-21T14:25:10.075Z,23.65
2023-01-21T14:27:46.865Z,30.27
2023-01-21T14:30:24.055Z,24.40
2023-01-21T14:32:57.935Z,24.90
2023-01-21T14:35:34.618Z,27.80
2023-01-21T14:38:12.639Z,30.73
2023-01-21T14:40:48.984Z,24.27
2023-01-21T14:43:44.421Z,26.55
2023-01-21T14:46:30.846Z,22.08
2023-01-21T14:49:06.328Z,21.08
2023-01-21T14:51:41.911Z,18.95
2023-01-21T14:54:32.156Z,17.75
2023-01-21T14:57:18.831Z,24.90
2023-01-21T14:59:51.495Z,20.77
2023-01-21T15:02:35.833Z,29.30
2023-01-21T15:08:30.008Z,18.10
2023-01-21T15:11:04.832Z,22.80
2023-01-21T15:13:37.511Z,14.55
2023-01-21T15:16:16.061Z,20.80
2023-01-21T15:18:48.558Z,17.33
2023-01-21T15:24:26.000Z,24.52
2023-01-21T15:27:16.472Z,21.65
2023-01-21T15:29:48.866Z,21.20
2023-01-21T15:32:28.468Z,18.27
2023-01-21T15:35:00.174Z,22.98
2023-01-21T15:37:32.415Z,18.63
2023-01-21T15:40:03.494Z,17.77
2023-01-21T15:42:41.385Z,32.00
2023-01-21T15:45:28.902Z,27.92
2023-01-21T15:48:10.848Z,26.30
2023-01-21T15:50:47.031Z,21.15
2023-01-21T15:53:40.169Z,24.63
2023-01-21T15:56:30.590Z,31.75
2023-01-21T15:59:09.020Z,25.52
2023-01-21T16:01:39.135Z,25.27
2023-01-21T16:04:28.233Z,24.27
2023-01-21T16:07:10.802Z,29.48
2023-01-21T16:12:27.598Z,28.92
2023-01-21T16:15:01.086Z,21.60
2023-01-21T16:17:43.911Z,24.38
2023-01-21T16:20:14.537Z,23.92
2023-01-21T16:22:46.929Z,21.73
2023-01-21T16:25:23.646Z,18.92
2023-01-21T16:27:54.106Z,18.92
2023-01-21T16:30:23.698Z,20.80
2023-01-21T16:33:13.425Z,20.02
2023-01-21T16:35:46.163Z,21.45
2023-01-21T16:38:19.869Z,21.13
2023-01-21T16:40:51.359Z,23.50
2023-01-21T16:43:24.826Z,25.30
2023-01-21T16:45:59.063Z,21.35
2023-01-21T16:48:30.795Z,18.05
2023-01-21T16:50:59.604Z,15.73
2023-01-21T16:53:29.807Z,27.05
2023-01-21T16:56:00.818Z,21.50
2023-01-21T16:58:32.429Z,20.38
2023-01-21T17:01:05.960Z,18.23
2023-01-21T17:03:36.196Z,18.98
2023-01-21T17:06:09.968Z,16.13
2023-01-21T17:08:39.760Z,17.73
2023-01-21T17:11:11.855Z,16.65
2023-01-21T17:13:43.102Z,17.48
2023-01-21T17:16:25.609Z,18.83
2023-01-21T17:18:57.939Z,24.55
2023-01-21T17:21:33.412Z,17.85
2023-01-21T17:24:05.552Z,16.33
2023-01-21T17:26:38.098Z,16.95
2023-01-21T17:29:12.313Z,17.58
2023-01-21T17:31:41.247Z,20.15
2023-01-21T17:34:21.958Z,16.02
2023-01-21T17:36:51.795Z,21.83
2023-01-21T17:39:53.160Z,18.17
2023-01-21T17:42:25.609Z,23.58
2023-01-21T17:47:27.642Z,20.02
2023-01-21T17:50:01.490Z,16.70
2023-01-21T17:52:29.893Z,18.98
2023-01-21T17:55:27.111Z,18.17
2023-01-21T17:57:56.678Z,17.85
2023-01-21T18:00:36.873Z,19.88
2023-01-21T18:03:06.907Z,20.20
2023-01-21T18:05:36.104Z,18.58
2023-01-21T18:08:12.582Z,16.17
2023-01-21T18:10:40.551Z,21.85
2023-01-21T18:13:12.435Z,19.25
2023-01-21T18:15:43.087Z,18.42
2023-01-21T18:18:17.772Z,18.70
2023-01-21T18:20:48.646Z,20.67
2023-01-21T18:23:18.239Z,16.42
2023-01-21T18:25:48.731Z,19.45
2023-01-21T18:28:20.664Z,24.02
2023-01-21T18:30:50.404Z,19.77
2023-01-21T18:33:19.103Z,18.55
2023-01-21T18:35:49.359Z,17.08
2023-01-21T18:38:21.660Z,18.70
2023-01-21T18:40:49.920Z,14.35
2023-01-21T18:43:19.505Z,18.17
2023-01-21T18:45:47.494Z,18.67
2023-01-21T18:48:16.749Z,16.42
2023-01-21T18:50:44.782Z,17.52
2023-01-21T18:53:16.937Z,21.23
2023-01-21T18:55:49.681Z,24.00
2023-01-21T18:58:19.320Z,20.80
2023-01-21T19:00:47.544Z,20.00
2023-01-21T19:03:16.510Z,22.67
2023-01-21T19:05:47.708Z,24.23
2023-01-21T19:08:18.316Z,24.20
2023-01-21T19:10:46.751Z,29.02
2023-01-21T19:13:17.667Z,20.13
2023-01-21T19:15:48.176Z,17.95
2023-01-21T19:18:17.796Z,27.23
2023-01-21T19:20:46.065Z,18.88
2023-01-21T19:23:16.498Z,22.85
2023-01-21T19:25:48.583Z,18.38
2023-01-21T19:28:16.930Z,21.02
2023-01-21T19:30:49.500Z,21.65
2023-01-21T19:33:17.613Z,19.63
2023-01-21T19:35:49.708Z,20.77
2023-01-21T19:38:20.570Z,19.90
2023-01-21T19:40:48.910Z,19.80
2023-01-21T19:43:20.529Z,15.20
2023-01-21T19:45:51.864Z,11.15
2023-01-21T19:48:22.550Z,16.27
2023-01-21T19:50:51.010Z,19.40
2023-01-21T19:53:22.386Z,20.60
2023-01-21T19:55:52.042Z,22.70
2023-01-21T19:58:23.364Z,18.55
2023-01-21T20:00:54.627Z,21.50
2023-01-21T20:03:24.515Z,20.58
2023-01-21T20:05:55.556Z,17.95
2023-01-21T20:08:26.463Z,23.30
2023-01-21T20:10:55.697Z,19.55
2023-01-21T20:13:32.591Z,15.65
2023-01-21T20:16:04.506Z,17.98
2023-01-21T20:18:33.655Z,18.00
2023-01-21T20:21:01.777Z,17.60
2023-01-21T20:23:34.055Z,19.83
2023-01-21T20:26:02.225Z,21.23
2023-01-21T20:28:42.336Z,22.42
2023-01-21T20:31:13.888Z,17.80
2023-01-21T20:33:43.974Z,13.15
2023-01-21T20:36:22.314Z,18.35
2023-01-21T20:38:50.448Z,21.60
2023-01-21T20:41:18.686Z,21.95
2023-01-21T20:43:46.915Z,19.55
2023-01-21T20:46:20.873Z,19.98
2023-01-21T20:48:49.205Z,21.27
2023-01-21T20:51:17.327Z,17.10
2023-01-21T20:53:45.949Z,19.48
2023-01-21T20:56:23.161Z,16.52
2023-01-21T20:58:51.347Z,17.13
2023-01-21T21:01:23.041Z,19.35
2023-01-21T21:03:51.351Z,21.42
2023-01-21T21:06:21.564Z,18.08
2023-01-21T21:08:50.310Z,18.67
2023-01-21T21:11:19.967Z,20.25
2023-01-21T21:13:52.951Z,24.63
2023-01-21T21:16:24.478Z,19.52
2023-01-21T21:18:53.098Z,25.40
2023-01-21T21:21:23.664Z,16.33
2023-01-21T21:23:52.480Z,17.80
2023-01-21T21:26:23.015Z,19.95
2023-01-21T21:28:54.768Z,18.90
2023-01-21T21:31:25.503Z,19.00
2023-01-21T21:33:53.872Z,22.25
2023-01-21T21:36:24.579Z,22.23
2023-01-21T21:38:55.540Z,17.73
2023-01-21T21:41:44.920Z,21.70
2023-01-21T21:44:15.052Z,22.15
2023-01-21T21:47:02.225Z,18.55
2023-01-21T21:49:31.153Z,21.48
2023-01-21T21:52:01.596Z,22.92
2023-01-21T21:54:29.838Z,21.02
2023-01-21T21:57:00.391Z,22.88
2023-01-21T21:59:28.566Z,24.27
2023-01-21T22:02:00.727Z,24.73
2023-01-21T22:04:28.864Z,20.98
2023-01-21T22:06:56.883Z,24.48
2023-01-21T22:09:25.040Z,19.67
2023-01-21T22:11:53.026Z,24.77
2023-01-21T22:14:21.602Z,21.98
2023-01-21T22:16:51.943Z,18.67
2023-01-21T22:19:21.636Z,25.60
2023-01-21T22:21:50.072Z,22.30
2023-01-21T22:24:18.155Z,23.15
2023-01-21T22:26:48.626Z,24.20
2023-01-21T22:29:16.761Z,21.63
2023-01-21T22:31:49.335Z,25.70
2023-01-21T22:34:17.704Z,23.67
2023-01-21T22:36:48.230Z,27.33
2023-01-21T22:39:16.459Z,25.60
2023-01-21T22:41:44.620Z,30.88
2023-01-21T22:44:12.671Z,26.83
2023-01-21T22:46:42.739Z,26.15
2023-01-21T22:49:12.071Z,23.20
2023-01-21T22:51:41.890Z,33.58
2023-01-21T22:54:12.892Z,31.08
2023-01-21T22:56:52.552Z,24.67
2023-01-21T22:59:21.157Z,31.50
2023-01-21T23:01:51.067Z,25.88
2023-01-21T23:04:19.310Z,32.97
2023-01-21T23:06:48.748Z,27.23
2023-01-21T23:09:18.302Z,26.27
2023-01-21T23:11:46.176Z,28.30
2023-01-21T23:14:14.167Z,22.83
2023-01-21T23:16:42.032Z,23.17
2023-01-21T23:19:11.891Z,22.40
2023-01-21T23:21:40.351Z,23.40
2023-01-21T23:24:08.834Z,22.15
2023-01-21T23:26:38.499Z,23.95
2023-01-21T23:29:08.480Z,25.50
2023-01-21T23:31:36.662Z,20.55
2023-01-21T23:34:04.947Z,25.27
2023-01-21T23:36:34.792Z,23.30
2023-01-21T23:39:02.791Z,18.00
2023-01-21T23:41:30.802Z,18.75
2023-01-21T23:44:10.891Z,23.48
2023-01-21T23:46:40.958Z,25.58
2023-01-21T23:49:09.147Z,26.80
2023-01-21T23:51:37.078Z,24.58
2023-01-21T23:54:05.251Z,24.10
2023-01-21T23:56:33.090Z,23.70
2023-01-21T23:59:02.319Z,24.85
